Time,TemperatureF,DewpointF,PressureIn,WindDirection,WindDirectionDegrees,WindSpeedMPH,WindSpeedGustMPH,Humidity,HourlyPrecipIn,Conditions,Clouds,dailyrainin,SoftwareType,DateUTC
2013-02-06 00:22:00,27.0,-99.9,29.93,North,-999,-999.0,-999.0,100,-99.99,,,-99.99,,2013-02-06 05:22:00,
2013-02-06 00:32:00,27.0,-99.9,29.93,North,-999,-999.0,-999.0,100,-99.99,,,-99.99,,2013-02-06 05:32:00,
2013-02-06 00:42:00,27.0,-99.9,29.93,North,-999,-999.0,-999.0,100,-99.99,,,-99.99,,2013-02-06 05:42:00,
2013-02-06 01:32:00,28.0,-99.9,29.96,North,-999,-999.0,-999.0,100,-99.99,,,-99.99,,2013-02-06 06:32:00,
2013-02-06 01:42:00,28.0,-99.9,29.96,North,-999,-999.0,-999.0,100,-99.99,,,-99.99,,2013-02-06 06:42:00,
2013-02-06 02:22:00,29.0,-99.9,29.98,North,-999,-999.0,-999.0,100,-99.99,,,-99.99,,2013-02-06 07:22:00,
2013-02-06 02:32:00,29.0,-99.9,29.98,North,-999,-999.0,-999.0,100,-99.99,,,-99.99,,2013-02-06 07:32:00,
2013-02-06 02:42:00,29.0,-99.9,29.98,North,-999,-999.0,-999.0,100,-99.99,,,-99.99,,2013-02-06 07:42:00,
2013-02-06 03:21:00,29.0,-99.9,30.01,North,-999,-999.0,-999.0,100,-99.99,,,-99.99,,2013-02-06 08:21:00,
2013-02-06 03:32:00,29.0,-99.9,30.01,North,-999,-999.0,-999.0,100,-99.99,,,-99.99,,2013-02-06 08:32:00,
2013-02-06 03:42:00,29.0,-99.9,30.01,North,-999,-999.0,-999.0,100,-99.99,,,-99.99,,2013-02-06 08:42:00,
2013-02-06 04:22:00,29.0,-99.9,30.04,North,-999,-999.0,-999.0,100,-99.99,,,-99.99,,2013-02-06 09:22:00,
2013-02-06 04:32:00,29.0,-99.9,30.04,North,-999,-999.0,-999.0,100,-99.99,,,-99.99,,2013-02-06 09:32:00,
2013-02-06 04:42:00,29.0,-99.9,30.04,North,-999,-999.0,-999.0,100,-99.99,,,-99.99,,2013-02-06 09:42:00,
2013-02-06 05:22:00,26.0,-99.9,30.07,North,-999,-999.0,-999.0,100,-99.99,,,-99.99,,2013-02-06 10:22:00,
2013-02-06 05:32:00,26.0,-99.9,30.07,North,-999,-999.0,-999.0,100,-99.99,,,-99.99,,2013-02-06 10:32:00,
2013-02-06 05:42:00,26.0,-99.9,30.07,North,-999,-999.0,-999.0,100,-99.99,,,-99.99,,2013-02-06 10:42:00,
2013-02-06 06:22:00,24.0,21.0,30.13,North,-999,-999.0,-999.0,87,-99.99,,,-99.99,,2013-02-06 11:22:00,
2013-02-06 06:32:00,24.0,21.0,30.13,North,-999,-999.0,-999.0,87,-99.99,,,-99.99,,2013-02-06 11:32:00,
2013-02-06 06:42:00,24.0,21.0,30.13,North,-999,-999.0,-999.0,87,-99.99,,,-99.99,,2013-02-06 11:42:00,
2013-02-06 07:32:00,24.0,20.0,30.17,North,-999,-999.0,-999.0,85,-99.99,,,-99.99,,2013-02-06 12:32:00,
2013-02-06 07:42:00,24.0,20.0,30.17,North,-999,-999.0,-999.0,85,-99.99,,,-99.99,,2013-02-06 12:42:00,
2013-02-06 08:32:00,24.0,15.0,30.22,North,-999,-999.0,-999.0,67,-99.99,,,-99.99,,2013-02-06 13:32:00,
2013-02-06 08:42:00,24.0,15.0,30.22,North,-999,-999.0,-999.0,67,-99.99,,,-99.99,,2013-02-06 13:42:00,
2013-02-06 09:22:00,23.0,13.0,30.25,North,-999,-999.0,-999.0,64,-99.99,,,-99.99,,2013-02-06 14:22:00,
2013-02-06 09:32:00,23.0,13.0,30.25,North,-999,-999.0,-999.0,64,-99.99,,,-99.99,,2013-02-06 14:32:00,
2013-02-06 09:42:00,23.0,13.0,30.25,North,-999,-999.0,-999.0,64,-99.99,,,-99.99,,2013-02-06 14:42:00,
2013-02-06 10:21:00,25.0,14.0,30.26,North,-999,-999.0,-999.0,61,-99.99,,,-99.99,,2013-02-06 15:21:00,
2013-02-06 10:32:00,25.0,14.0,30.26,North,-999,-999.0,-999.0,61,-99.99,,,-99.99,,2013-02-06 15:32:00,
2013-02-06 10:42:00,25.0,14.0,30.26,North,-999,-999.0,-999.0,61,-99.99,,,-99.99,,2013-02-06 15:42:00,
2013-02-06 11:22:00,27.0,13.0,30.27,North,-999,-999.0,-999.0,55,-99.99,,,-99.99,,2013-02-06 16:22:00,
2013-02-06 11:32:00,27.0,13.0,30.27,North,-999,-999.0,-999.0,55,-99.99,,,-99.99,,2013-02-06 16:32:00,
2013-02-06 11:42:00,27.0,13.0,30.27,North,-999,-999.0,-999.0,55,-99.99,,,-99.99,,2013-02-06 16:42:00,
2013-02-06 12:32:00,27.0,12.0,30.28,North,-999,-999.0,-999.0,53,-99.99,,,-99.99,,2013-02-06 17:32:00,
2013-02-06 12:42:00,27.0,12.0,30.28,North,-999,-999.0,-999.0,53,-99.99,,,-99.99,,2013-02-06 17:42:00,
2013-02-06 12:52:00,27.0,12.0,30.28,North,-999,-999.0,-999.0,53,-99.99,,,-99.99,,2013-02-06 17:52:00,
2013-02-06 13:23:00,26.0,12.0,30.27,North,-999,-999.0,-999.0,54,-99.99,,,-99.99,,2013-02-06 18:23:00,
2013-02-06 13:33:00,26.0,12.0,30.27,North,-999,-999.0,-999.0,54,-99.99,,,-99.99,,2013-02-06 18:33:00,
2013-02-06 13:42:00,26.0,12.0,30.27,North,-999,-999.0,-999.0,54,-99.99,,,-99.99,,2013-02-06 18:42:00,
2013-02-06 14:22:00,28.0,14.0,30.28,North,-999,-999.0,-999.0,53,-99.99,,,-99.99,,2013-02-06 19:22:00,
2013-02-06 14:32:00,28.0,14.0,30.28,North,-999,-999.0,-999.0,53,-99.99,,,-99.99,,2013-02-06 19:32:00,
2013-02-06 14:42:00,28.0,14.0,30.28,North,-999,-999.0,-999.0,53,-99.99,,,-99.99,,2013-02-06 19:42:00,
2013-02-06 15:21:00,28.0,13.0,30.28,North,-999,-999.0,-999.0,53,-99.99,,,-99.99,,2013-02-06 20:21:00,
2013-02-06 15:32:00,28.0,13.0,30.28,North,-999,-999.0,-999.0,53,-99.99,,,-99.99,,2013-02-06 20:32:00,
2013-02-06 15:42:00,28.0,13.0,30.28,North,-999,-999.0,-999.0,53,-99.99,,,-99.99,,2013-02-06 20:42:00,
2013-02-06 16:22:00,30.0,13.0,30.28,North,-999,-999.0,-999.0,49,-99.99,,,-99.99,,2013-02-06 21:22:00,
2013-02-06 16:32:00,30.0,13.0,30.28,North,-999,-999.0,-999.0,49,-99.99,,,-99.99,,2013-02-06 21:32:00,
2013-02-06 16:42:00,30.0,13.0,30.28,North,-999,-999.0,-999.0,49,-99.99,,,-99.99,,2013-02-06 21:42:00,
2013-02-06 17:32:00,28.0,14.0,30.29,North,-999,-999.0,-999.0,55,-99.99,,,-99.99,,2013-02-06 22:32:00,
2013-02-06 17:42:00,28.0,14.0,30.29,North,-999,-999.0,-999.0,55,-99.99,,,-99.99,,2013-02-06 22:42:00,
2013-02-06 18:21:00,27.0,14.0,30.28,North,-999,-999.0,-999.0,57,-99.99,,,-99.99,,2013-02-06 23:21:00,
2013-02-06 18:32:00,27.0,14.0,30.28,North,-999,-999.0,-999.0,57,-99.99,,,-99.99,,2013-02-06 23:32:00,
2013-02-06 18:42:00,27.0,14.0,30.28,North,-999,-999.0,-999.0,57,-99.99,,,-99.99,,2013-02-06 23:42:00,
2013-02-06 19:22:00,26.0,15.0,30.31,North,-999,-999.0,-999.0,62,-99.99,,,-99.99,,2013-02-07 00:22:00,
2013-02-06 19:32:00,26.0,15.0,30.31,North,-999,-999.0,-999.0,62,-99.99,,,-99.99,,2013-02-07 00:32:00,
2013-02-06 19:42:00,26.0,15.0,30.31,North,-999,-999.0,-999.0,62,-99.99,,,-99.99,,2013-02-07 00:42:00,
2013-02-06 20:21:00,25.0,14.0,30.32,North,-999,-999.0,-999.0,63,-99.99,,,-99.99,,2013-02-07 01:21:00,
2013-02-06 20:32:00,25.0,14.0,30.32,North,-999,-999.0,-999.0,63,-99.99,,,-99.99,,2013-02-07 01:32:00,
2013-02-06 20:42:00,25.0,14.0,30.32,North,-999,-999.0,-999.0,63,-99.99,,,-99.99,,2013-02-07 01:42:00,
2013-02-06 21:21:00,23.0,14.0,30.32,North,-999,-999.0,-999.0,68,-99.99,,,-99.99,,2013-02-07 02:21:00,
2013-02-06 21:32:00,23.0,14.0,30.32,North,-999,-999.0,-999.0,68,-99.99,,,-99.99,,2013-02-07 02:32:00,
2013-02-06 21:42:00,23.0,14.0,30.32,North,-999,-999.0,-999.0,68,-99.99,,,-99.99,,2013-02-07 02:42:00,
2013-02-06 22:21:00,24.0,15.0,30.31,North,-999,-999.0,-999.0,69,-99.99,,,-99.99,,2013-02-07 03:21:00,
2013-02-06 22:32:00,24.0,15.0,30.31,North,-999,-999.0,-999.0,69,-99.99,,,-99.99,,2013-02-07 03:32:00,
2013-02-06 22:42:00,24.0,15.0,30.31,North,-999,-999.0,-999.0,69,-99.99,,,-99.99,,2013-02-07 03:42:00,
2013-02-06 23:22:00,24.0,16.0,30.29,North,-999,-999.0,-999.0,69,-99.99,,,-99.99,,2013-02-07 04:22:00,
2013-02-06 23:32:00,24.0,16.0,30.29,North,-999,-999.0,-999.0,69,-99.99,,,-99.99,,2013-02-07 04:32:00,
2013-02-06 23:42:00,24.0,16.0,30.29,North,-999,-999.0,-999.0,69,-99.99,,,-99.99,,2013-02-07 04:42:00,